sensor_id;sensor_type;location;lat;lon;timestamp;temperature;humidity
16243;DHT22;11719;51.052;6.982;2022-11-15T00:00:54;18.90;97.60
16243;DHT22;11719;51.052;6.982;2022-11-15T00:03:25;18.90;97.60
16243;DHT22;11719;51.052;6.982;2022-11-15T00:05:52;18.90;97.60
16243;DHT22;11719;51.052;6.982;2022-11-15T00:08:18;18.90;97.60
16243;DHT22;11719;51.052;6.982;2022-11-15T00:10:56;18.90;97.60
16243;DHT22;11719;51.052;6.982;2022-11-15T00:13:23;18.90;97.60
16243;DHT22;11719;51.052;6.982;2022-11-15T00:15:48;18.90;97.60
16243;DHT22;11719;51.052;6.982;2022-11-15T00:18:15;18.90;97.70
16243;DHT22;11719;51.052;6.982;2022-11-15T00:20:42;18.80;99.00
16243;DHT22;11719;51.052;6.982;2022-11-15T00:23:08;18.70;98.20
16243;DHT22;11719;51.052;6.982;2022-11-15T00:25:34;18.70;98.10
16243;DHT22;11719;51.052;6.982;2022-11-15T00:28:00;18.70;98.00
16243;DHT22;11719;51.052;6.982;2022-11-15T00:30:27;18.80;97.90
16243;DHT22;11719;51.052;6.982;2022-11-15T00:32:54;18.80;97.90
16243;DHT22;11719;51.052;6.982;2022-11-15T00:35:20;18.80;97.90
16243;DHT22;11719;51.052;6.982;2022-11-15T00:37:47;18.80;97.90
16243;DHT22;11719;51.052;6.982;2022-11-15T00:40:13;18.80;97.90
16243;DHT22;11719;51.052;6.982;2022-11-15T00:42:40;18.80;98.00
16243;DHT22;11719;51.052;6.982;2022-11-15T00:45:06;18.80;98.10
16243;DHT22;11719;51.052;6.982;2022-11-15T00:47:33;18.80;98.30
16243;DHT22;11719;51.052;6.982;2022-11-15T00:49:58;18.70;98.50
16243;DHT22;11719;51.052;6.982;2022-11-15T00:52:24;18.70;98.40
16243;DHT22;11719;51.052;6.982;2022-11-15T00:54:50;18.60;98.60
16243;DHT22;11719;51.052;6.982;2022-11-15T00:57:16;18.60;98.60
16243;DHT22;11719;51.052;6.982;2022-11-15T00:59:42;18.60;98.50
16243;DHT22;11719;51.052;6.982;2022-11-15T01:02:07;18.60;98.50
16243;DHT22;11719;51.052;6.982;2022-11-15T01:04:33;18.70;98.50
16243;DHT22;11719;51.052;6.982;2022-11-15T01:06:59;18.70;98.40
16243;DHT22;11719;51.052;6.982;2022-11-15T01:09:25;18.80;98.30
16243;DHT22;11719;51.052;6.982;2022-11-15T01:11:50;18.80;98.20
16243;DHT22;11719;51.052;6.982;2022-11-15T01:14:17;18.70;98.40
16243;DHT22;11719;51.052;6.982;2022-11-15T01:16:43;18.70;98.70
16243;DHT22;11719;51.052;6.982;2022-11-15T01:19:09;18.60;98.90
16243;DHT22;11719;51.052;6.982;2022-11-15T01:21:35;18.60;98.70
16243;DHT22;11719;51.052;6.982;2022-11-15T01:24:00;18.60;98.80
16243;DHT22;11719;51.052;6.982;2022-11-15T01:26:26;18.60;98.60
16243;DHT22;11719;51.052;6.982;2022-11-15T01:28:52;18.60;98.50
16243;DHT22;11719;51.052;6.982;2022-11-15T01:31:19;18.60;98.60
16243;DHT22;11719;51.052;6.982;2022-11-15T01:33:47;18.60;98.70
16243;DHT22;11719;51.052;6.982;2022-11-15T01:39:59;18.50;99.00
16243;DHT22;11719;51.052;6.982;2022-11-15T01:42:25;18.50;99.00
16243;DHT22;11719;51.052;6.982;2022-11-15T01:44:51;18.50;99.10
16243;DHT22;11719;51.052;6.982;2022-11-15T01:47:32;18.50;98.80
16243;DHT22;11719;51.052;6.982;2022-11-15T01:50:05;18.60;98.80
16243;DHT22;11719;51.052;6.982;2022-11-15T01:52:34;18.50;99.90
16243;DHT22;11719;51.052;6.982;2022-11-15T01:55:20;18.50;99.00
16243;DHT22;11719;51.052;6.982;2022-11-15T01:57:51;18.50;99.10
16243;DHT22;11719;51.052;6.982;2022-11-15T02:00:18;18.60;99.00
16243;DHT22;11719;51.052;6.982;2022-11-15T02:02:44;18.50;99.10
16243;DHT22;11719;51.052;6.982;2022-11-15T02:05:10;18.60;98.90
16243;DHT22;11719;51.052;6.982;2022-11-15T02:07:36;18.50;99.50
16243;DHT22;11719;51.052;6.982;2022-11-15T02:10:11;18.60;98.90
16243;DHT22;11719;51.052;6.982;2022-11-15T02:12:39;18.50;99.60
16243;DHT22;11719;51.052;6.982;2022-11-15T02:15:07;18.50;99.10
16243;DHT22;11719;51.052;6.982;2022-11-15T02:21:00;18.60;99.10
16243;DHT22;11719;51.052;6.982;2022-11-15T02:29:51;18.70;98.80
16243;DHT22;11719;51.052;6.982;2022-11-15T02:32:44;18.80;98.70
16243;DHT22;11719;51.052;6.982;2022-11-15T02:43:11;18.80;98.70
16243;DHT22;11719;51.052;6.982;2022-11-15T02:48:44;18.80;98.70
16243;DHT22;11719;51.052;6.982;2022-11-15T02:51:11;18.80;98.60
16243;DHT22;11719;51.052;6.982;2022-11-15T02:53:38;18.90;98.60
16243;DHT22;11719;51.052;6.982;2022-11-15T02:56:04;18.90;98.60
16243;DHT22;11719;51.052;6.982;2022-11-15T02:58:53;18.90;98.60
16243;DHT22;11719;51.052;6.982;2022-11-15T03:04:35;18.90;98.60
16243;DHT22;11719;51.052;6.982;2022-11-15T03:07:16;18.90;98.70
16243;DHT22;11719;51.052;6.982;2022-11-15T03:10:06;18.80;99.80
16243;DHT22;11719;51.052;6.982;2022-11-15T03:16:02;18.70;99.90
16243;DHT22;11719;51.052;6.982;2022-11-15T03:18:35;18.60;99.80
16243;DHT22;11719;51.052;6.982;2022-11-15T03:21:06;18.50;99.90
16243;DHT22;11719;51.052;6.982;2022-11-15T03:23:34;18.40;99.90
16243;DHT22;11719;51.052;6.982;2022-11-15T03:26:01;18.40;99.90
16243;DHT22;11719;51.052;6.982;2022-11-15T03:28:49;18.30;99.90
16243;DHT22;11719;51.052;6.982;2022-11-15T03:31:19;18.20;99.90
16243;DHT22;11719;51.052;6.982;2022-11-15T03:34:08;18.20;99.90
16243;DHT22;11719;51.052;6.982;2022-11-15T03:36:36;18.20;99.90
16243;DHT22;11719;51.052;6.982;2022-11-15T03:39:07;18.20;99.90
16243;DHT22;11719;51.052;6.982;2022-11-15T03:44:51;18.10;99.90
16243;DHT22;11719;51.052;6.982;2022-11-15T03:47:54;18.10;99.90
16243;DHT22;11719;51.052;6.982;2022-11-15T03:50:25;18.20;99.90
16243;DHT22;11719;51.052;6.982;2022-11-15T03:52:54;18.20;99.90
16243;DHT22;11719;51.052;6.982;2022-11-15T03:55:21;18.30;99.90
16243;DHT22;11719;51.052;6.982;2022-11-15T03:57:49;18.30;99.90
16243;DHT22;11719;51.052;6.982;2022-11-15T04:00:17;18.40;99.90
16243;DHT22;11719;51.052;6.982;2022-11-15T04:02:43;18.40;99.90
16243;DHT22;11719;51.052;6.982;2022-11-15T04:05:08;18.30;99.90
16243;DHT22;11719;51.052;6.982;2022-11-15T04:07:34;18.40;99.90
16243;DHT22;11719;51.052;6.982;2022-11-15T04:10:00;18.40;99.80
16243;DHT22;11719;51.052;6.982;2022-11-15T04:12:35;18.50;99.90
16243;DHT22;11719;51.052;6.982;2022-11-15T04:15:17;18.50;99.60
16243;DHT22;11719;51.052;6.982;2022-11-15T04:17:46;18.60;99.90
16243;DHT22;11719;51.052;6.982;2022-11-15T04:23:05;18.60;99.40
16243;DHT22;11719;51.052;6.982;2022-11-15T04:25:52;18.70;99.40
16243;DHT22;11719;51.052;6.982;2022-11-15T04:28:20;18.70;99.40
16243;DHT22;11719;51.052;6.982;2022-11-15T04:30:46;18.70;99.40
16243;DHT22;11719;51.052;6.982;2022-11-15T04:33:12;18.70;99.40
16243;DHT22;11719;51.052;6.982;2022-11-15T04:35:37;18.70;99.40
16243;DHT22;11719;51.052;6.982;2022-11-15T04:38:05;18.80;99.90
16243;DHT22;11719;51.052;6.982;2022-11-15T04:40:31;18.80;99.90
16243;DHT22;11719;51.052;6.982;2022-11-15T04:42:57;18.60;99.90
16243;DHT22;11719;51.052;6.982;2022-11-15T04:45:23;18.60;99.80
16243;DHT22;11719;51.052;6.982;2022-11-15T04:47:49;18.60;99.90
16243;DHT22;11719;51.052;6.982;2022-11-15T04:50:15;18.50;99.90
16243;DHT22;11719;51.052;6.982;2022-11-15T04:52:43;18.50;99.90
16243;DHT22;11719;51.052;6.982;2022-11-15T04:55:12;18.50;99.70
16243;DHT22;11719;51.052;6.982;2022-11-15T04:57:38;18.60;99.60
16243;DHT22;11719;51.052;6.982;2022-11-15T05:00:06;18.60;99.90
16243;DHT22;11719;51.052;6.982;2022-11-15T05:02:36;18.50;99.90
16243;DHT22;11719;51.052;6.982;2022-11-15T05:05:21;18.50;99.90
16243;DHT22;11719;51.052;6.982;2022-11-15T05:07:47;18.40;99.90
16243;DHT22;11719;51.052;6.982;2022-11-15T05:10:13;18.40;99.90
16243;DHT22;11719;51.052;6.982;2022-11-15T05:12:39;18.50;99.90
16243;DHT22;11719;51.052;6.982;2022-11-15T05:15:05;18.60;99.80
16243;DHT22;11719;51.052;6.982;2022-11-15T05:17:31;18.60;99.70
16243;DHT22;11719;51.052;6.982;2022-11-15T05:19:57;18.60;99.90
16243;DHT22;11719;51.052;6.982;2022-11-15T05:22:23;18.60;99.70
16243;DHT22;11719;51.052;6.982;2022-11-15T05:24:48;18.60;99.80
16243;DHT22;11719;51.052;6.982;2022-11-15T05:27:14;18.70;99.60
16243;DHT22;11719;51.052;6.982;2022-11-15T05:29:40;18.70;99.60
16243;DHT22;11719;51.052;6.982;2022-11-15T05:32:08;18.70;99.90
16243;DHT22;11719;51.052;6.982;2022-11-15T05:34:34;18.60;99.90
16243;DHT22;11719;51.052;6.982;2022-11-15T05:37:00;18.60;99.90
16243;DHT22;11719;51.052;6.982;2022-11-15T05:39:26;18.60;99.90
16243;DHT22;11719;51.052;6.982;2022-11-15T05:42:01;18.60;99.80
16243;DHT22;11719;51.052;6.982;2022-11-15T05:44:31;18.70;99.70
16243;DHT22;11719;51.052;6.982;2022-11-15T05:46:57;18.70;99.80
16243;DHT22;11719;51.052;6.982;2022-11-15T05:49:26;18.60;99.90
16243;DHT22;11719;51.052;6.982;2022-11-15T05:51:56;18.60;99.90
16243;DHT22;11719;51.052;6.982;2022-11-15T05:54:24;18.60;99.90
16243;DHT22;11719;51.052;6.982;2022-11-15T05:56:50;18.60;99.90
16243;DHT22;11719;51.052;6.982;2022-11-15T05:59:16;18.50;99.90
16243;DHT22;11719;51.052;6.982;2022-11-15T06:01:42;18.60;99.90
16243;DHT22;11719;51.052;6.982;2022-11-15T06:04:08;18.60;99.90
16243;DHT22;11719;51.052;6.982;2022-11-15T06:06:34;18.60;99.90
16243;DHT22;11719;51.052;6.982;2022-11-15T06:08:59;18.70;99.90
16243;DHT22;11719;51.052;6.982;2022-11-15T06:11:25;18.70;99.80
16243;DHT22;11719;51.052;6.982;2022-11-15T06:13:51;18.70;99.90
16243;DHT22;11719;51.052;6.982;2022-11-15T06:16:17;18.70;99.90
16243;DHT22;11719;51.052;6.982;2022-11-15T06:18:42;18.60;99.90
16243;DHT22;11719;51.052;6.982;2022-11-15T06:21:08;18.50;99.90
16243;DHT22;11719;51.052;6.982;2022-11-15T06:23:35;18.50;99.90
16243;DHT22;11719;51.052;6.982;2022-11-15T06:26:02;18.50;99.90
16243;DHT22;11719;51.052;6.982;2022-11-15T06:28:29;18.50;99.90
16243;DHT22;11719;51.052;6.982;2022-11-15T06:31:01;18.40;99.90
16243;DHT22;11719;51.052;6.982;2022-11-15T06:33:28;18.50;99.90
16243;DHT22;11719;51.052;6.982;2022-11-15T06:35:54;18.50;99.90
16243;DHT22;11719;51.052;6.982;2022-11-15T06:38:19;18.60;99.90
16243;DHT22;11719;51.052;6.982;2022-11-15T06:40:45;18.50;99.90
16243;DHT22;11719;51.052;6.982;2022-11-15T06:43:11;18.50;99.90
16243;DHT22;11719;51.052;6.982;2022-11-15T06:45:37;18.50;99.90
16243;DHT22;11719;51.052;6.982;2022-11-15T06:48:03;18.40;99.90
16243;DHT22;11719;51.052;6.982;2022-11-15T06:50:28;18.40;99.90
16243;DHT22;11719;51.052;6.982;2022-11-15T06:52:54;18.40;99.90
16243;DHT22;11719;51.052;6.982;2022-11-15T06:55:20;18.40;99.90
16243;DHT22;11719;51.052;6.982;2022-11-15T06:57:50;18.50;99.90
16243;DHT22;11719;51.052;6.982;2022-11-15T07:00:18;18.50;99.90
16243;DHT22;11719;51.052;6.982;2022-11-15T07:02:45;18.60;99.90
16243;DHT22;11719;51.052;6.982;2022-11-15T07:05:12;18.60;99.90
16243;DHT22;11719;51.052;6.982;2022-11-15T07:07:38;18.70;99.90
16243;DHT22;11719;51.052;6.982;2022-11-15T07:10:06;18.60;99.90
16243;DHT22;11719;51.052;6.982;2022-11-15T07:12:32;18.70;99.90
16243;DHT22;11719;51.052;6.982;2022-11-15T07:14:58;18.60;99.90
16243;DHT22;11719;51.052;6.982;2022-11-15T07:17:24;18.60;99.90
16243;DHT22;11719;51.052;6.982;2022-11-15T07:19:50;18.60;99.90
16243;DHT22;11719;51.052;6.982;2022-11-15T07:22:15;18.50;99.90
16243;DHT22;11719;51.052;6.982;2022-11-15T07:24:41;18.50;99.90
16243;DHT22;11719;51.052;6.982;2022-11-15T07:27:07;18.40;99.90
16243;DHT22;11719;51.052;6.982;2022-11-15T07:29:32;18.40;99.90
16243;DHT22;11719;51.052;6.982;2022-11-15T07:31:58;18.30;99.90
16243;DHT22;11719;51.052;6.982;2022-11-15T07:34:24;18.20;99.90
16243;DHT22;11719;51.052;6.982;2022-11-15T07:36:50;18.00;99.90
16243;DHT22;11719;51.052;6.982;2022-11-15T07:39:16;17.90;99.90
16243;DHT22;11719;51.052;6.982;2022-11-15T07:41:41;17.90;99.90
16243;DHT22;11719;51.052;6.982;2022-11-15T07:44:08;17.90;99.90
16243;DHT22;11719;51.052;6.982;2022-11-15T07:46:34;17.80;99.90
16243;DHT22;11719;51.052;6.982;2022-11-15T07:49:00;17.90;99.90
16243;DHT22;11719;51.052;6.982;2022-11-15T07:51:25;17.90;99.90
16243;DHT22;11719;51.052;6.982;2022-11-15T07:53:51;18.00;99.90
16243;DHT22;11719;51.052;6.982;2022-11-15T07:56:17;18.00;99.90
16243;DHT22;11719;51.052;6.982;2022-11-15T07:58:45;17.90;99.90
16243;DHT22;11719;51.052;6.982;2022-11-15T08:01:11;17.80;99.90
16243;DHT22;11719;51.052;6.982;2022-11-15T08:03:37;17.80;99.90
16243;DHT22;11719;51.052;6.982;2022-11-15T08:06:03;17.70;99.90
16243;DHT22;11719;51.052;6.982;2022-11-15T08:08:29;17.80;99.90
16243;DHT22;11719;51.052;6.982;2022-11-15T08:10:57;17.90;99.90
16243;DHT22;11719;51.052;6.982;2022-11-15T08:13:23;17.90;99.90
16243;DHT22;11719;51.052;6.982;2022-11-15T08:15:49;17.90;99.90
16243;DHT22;11719;51.052;6.982;2022-11-15T08:18:16;18.00;99.90
16243;DHT22;11719;51.052;6.982;2022-11-15T08:20:42;18.00;99.90
16243;DHT22;11719;51.052;6.982;2022-11-15T08:23:11;18.00;99.90
16243;DHT22;11719;51.052;6.982;2022-11-15T08:25:38;18.00;99.90
16243;DHT22;11719;51.052;6.982;2022-11-15T08:28:06;18.10;99.90
16243;DHT22;11719;51.052;6.982;2022-11-15T08:30:38;18.20;99.90
16243;DHT22;11719;51.052;6.982;2022-11-15T08:33:10;18.20;99.90
16243;DHT22;11719;51.052;6.982;2022-11-15T08:35:38;18.20;99.90
16243;DHT22;11719;51.052;6.982;2022-11-15T08:38:04;18.20;99.90
16243;DHT22;11719;51.052;6.982;2022-11-15T08:40:30;18.30;99.90
16243;DHT22;11719;51.052;6.982;2022-11-15T08:42:56;18.30;99.90
16243;DHT22;11719;51.052;6.982;2022-11-15T08:45:21;18.30;99.90
16243;DHT22;11719;51.052;6.982;2022-11-15T08:47:47;18.30;99.90
16243;DHT22;11719;51.052;6.982;2022-11-15T08:50:13;18.40;99.90
16243;DHT22;11719;51.052;6.982;2022-11-15T08:52:39;18.50;99.90
16243;DHT22;11719;51.052;6.982;2022-11-15T08:55:05;18.50;99.90
16243;DHT22;11719;51.052;6.982;2022-11-15T08:57:31;18.30;99.90
16243;DHT22;11719;51.052;6.982;2022-11-15T08:59:57;18.30;99.90
16243;DHT22;11719;51.052;6.982;2022-11-15T09:02:23;18.40;99.90
16243;DHT22;11719;51.052;6.982;2022-11-15T09:04:48;18.50;99.90
16243;DHT22;11719;51.052;6.982;2022-11-15T09:07:14;18.50;99.90
16243;DHT22;11719;51.052;6.982;2022-11-15T09:09:41;18.50;99.90
16243;DHT22;11719;51.052;6.982;2022-11-15T09:12:07;18.40;99.90
16243;DHT22;11719;51.052;6.982;2022-11-15T09:14:34;18.40;99.90
16243;DHT22;11719;51.052;6.982;2022-11-15T09:17:00;18.50;99.90
16243;DHT22;11719;51.052;6.982;2022-11-15T09:19:26;18.40;99.90
16243;DHT22;11719;51.052;6.982;2022-11-15T09:21:52;18.30;99.90
16243;DHT22;11719;51.052;6.982;2022-11-15T09:24:18;18.20;99.90
16243;DHT22;11719;51.052;6.982;2022-11-15T09:26:44;18.30;99.90
16243;DHT22;11719;51.052;6.982;2022-11-15T09:29:10;18.20;99.90
16243;DHT22;11719;51.052;6.982;2022-11-15T09:31:36;18.20;99.90
16243;DHT22;11719;51.052;6.982;2022-11-15T09:34:02;18.10;99.90
16243;DHT22;11719;51.052;6.982;2022-11-15T09:36:27;18.00;99.90
16243;DHT22;11719;51.052;6.982;2022-11-15T09:38:53;18.00;99.90
16243;DHT22;11719;51.052;6.982;2022-11-15T09:44:54;17.90;99.90
16243;DHT22;11719;51.052;6.982;2022-11-15T09:47:56;18.00;99.90
16243;DHT22;11719;51.052;6.982;2022-11-15T09:50:36;18.00;99.90
16243;DHT22;11719;51.052;6.982;2022-11-15T09:53:11;18.00;99.90
16243;DHT22;11719;51.052;6.982;2022-11-15T09:55:51;18.10;99.90
16243;DHT22;11719;51.052;6.982;2022-11-15T10:04:31;17.90;99.90
16243;DHT22;11719;51.052;6.982;2022-11-15T10:07:28;17.70;99.90
16243;DHT22;11719;51.052;6.982;2022-11-15T10:10:24;17.80;99.90
16243;DHT22;11719;51.052;6.982;2022-11-15T10:12:51;17.90;99.90
16243;DHT22;11719;51.052;6.982;2022-11-15T10:15:18;17.80;99.90
16243;DHT22;11719;51.052;6.982;2022-11-15T10:18:14;17.80;99.90
16243;DHT22;11719;51.052;6.982;2022-11-15T10:20:58;17.90;99.90
16243;DHT22;11719;51.052;6.982;2022-11-15T10:23:32;18.00;99.90
16243;DHT22;11719;51.052;6.982;2022-11-15T10:25:59;18.20;99.90
16243;DHT22;11719;51.052;6.982;2022-11-15T10:28:29;18.20;99.90
16243;DHT22;11719;51.052;6.982;2022-11-15T10:30:58;18.30;99.40
16243;DHT22;11719;51.052;6.982;2022-11-15T10:33:37;18.30;99.40
16243;DHT22;11719;51.052;6.982;2022-11-15T10:44:11;17.60;99.90
16243;DHT22;11719;51.052;6.982;2022-11-15T10:46:39;17.80;99.90
16243;DHT22;11719;51.052;6.982;2022-11-15T10:54:41;18.20;99.90
16243;DHT22;11719;51.052;6.982;2022-11-15T10:57:16;18.20;98.60
16243;DHT22;11719;51.052;6.982;2022-11-15T10:59:48;18.30;99.50
16243;DHT22;11719;51.052;6.982;2022-11-15T11:05:24;18.40;99.90
16243;DHT22;11719;51.052;6.982;2022-11-15T11:08:01;18.50;99.90
16243;DHT22;11719;51.052;6.982;2022-11-15T11:10:29;18.40;98.60
16243;DHT22;11719;51.052;6.982;2022-11-15T11:12:55;18.50;99.60
16243;DHT22;11719;51.052;6.982;2022-11-15T11:15:23;18.40;96.60
16243;DHT22;11719;51.052;6.982;2022-11-15T11:18:02;18.30;99.90
16243;DHT22;11719;51.052;6.982;2022-11-15T11:26:34;18.50;99.40
16243;DHT22;11719;51.052;6.982;2022-11-15T11:32:30;18.40;98.40
16243;DHT22;11719;51.052;6.982;2022-11-15T11:40:40;18.40;98.60
16243;DHT22;11719;51.052;6.982;2022-11-15T11:43:27;18.30;97.80
16243;DHT22;11719;51.052;6.982;2022-11-15T11:46:17;18.20;95.50
16243;DHT22;11719;51.052;6.982;2022-11-15T11:49:09;18.30;97.50
16243;DHT22;11719;51.052;6.982;2022-11-15T11:52:01;18.30;98.90
16243;DHT22;11719;51.052;6.982;2022-11-15T11:57:44;18.40;99.30
16243;DHT22;11719;51.052;6.982;2022-11-15T12:00:49;18.50;98.60
16243;DHT22;11719;51.052;6.982;2022-11-15T12:06:44;18.60;97.10
16243;DHT22;11719;51.052;6.982;2022-11-15T12:09:43;18.60;96.10
16243;DHT22;11719;51.052;6.982;2022-11-15T12:12:23;18.50;98.80
16243;DHT22;11719;51.052;6.982;2022-11-15T12:15:23;18.40;94.80
16243;DHT22;11719;51.052;6.982;2022-11-15T12:17:50;18.30;94.90
16243;DHT22;11719;51.052;6.982;2022-11-15T12:20:25;18.30;99.20
16243;DHT22;11719;51.052;6.982;2022-11-15T12:31:13;18.60;99.10
16243;DHT22;11719;51.052;6.982;2022-11-15T12:33:48;18.70;99.20
16243;DHT22;11719;51.052;6.982;2022-11-15T12:36:36;18.80;98.80
16243;DHT22;11719;51.052;6.982;2022-11-15T12:39:08;18.70;97.50
16243;DHT22;11719;51.052;6.982;2022-11-15T13:31:37;19.10;98.40
16243;DHT22;11719;51.052;6.982;2022-11-15T13:36:50;19.00;98.50
16243;DHT22;11719;51.052;6.982;2022-11-15T13:39:31;19.00;98.40
16243;DHT22;11719;51.052;6.982;2022-11-15T13:41:59;19.10;98.20
16243;DHT22;11719;51.052;6.982;2022-11-15T13:44:28;19.00;98.20
16243;DHT22;11719;51.052;6.982;2022-11-15T13:47:28;19.00;98.50
16243;DHT22;11719;51.052;6.982;2022-11-15T13:49:57;19.00;98.50
16243;DHT22;11719;51.052;6.982;2022-11-15T13:52:28;19.00;98.20
16243;DHT22;11719;51.052;6.982;2022-11-15T13:55:13;19.00;98.20
16243;DHT22;11719;51.052;6.982;2022-11-15T13:57:48;19.00;98.40
16243;DHT22;11719;51.052;6.982;2022-11-15T14:06:10;19.00;98.40
16243;DHT22;11719;51.052;6.982;2022-11-15T14:08:38;18.90;98.50
16243;DHT22;11719;51.052;6.982;2022-11-15T14:11:22;18.90;98.70
16243;DHT22;11719;51.052;6.982;2022-11-15T14:16:47;18.90;98.50
16243;DHT22;11719;51.052;6.982;2022-11-15T14:22:11;18.90;98.60
16243;DHT22;11719;51.052;6.982;2022-11-15T14:24:37;18.90;98.70
16243;DHT22;11719;51.052;6.982;2022-11-15T14:27:21;19.00;98.60
16243;DHT22;11719;51.052;6.982;2022-11-15T14:29:52;19.00;98.60
16243;DHT22;11719;51.052;6.982;2022-11-15T14:32:26;19.00;98.70
16243;DHT22;11719;51.052;6.982;2022-11-15T14:34:59;19.00;98.60
16243;DHT22;11719;51.052;6.982;2022-11-15T14:39:52;19.00;98.90
16243;DHT22;11719;51.052;6.982;2022-11-15T14:42:20;19.00;98.00
16243;DHT22;11719;51.052;6.982;2022-11-15T14:44:47;19.00;98.50
16243;DHT22;11719;51.052;6.982;2022-11-15T14:47:13;19.00;98.50
16243;DHT22;11719;51.052;6.982;2022-11-15T14:49:40;19.10;98.50
16243;DHT22;11719;51.052;6.982;2022-11-15T14:52:29;19.10;98.50
16243;DHT22;11719;51.052;6.982;2022-11-15T14:54:59;19.10;98.50
16243;DHT22;11719;51.052;6.982;2022-11-15T14:57:26;19.10;98.40
16243;DHT22;11719;51.052;6.982;2022-11-15T14:59:52;19.10;98.40
16243;DHT22;11719;51.052;6.982;2022-11-15T15:02:23;19.10;98.40
16243;DHT22;11719;51.052;6.982;2022-11-15T15:04:51;19.00;98.50
16243;DHT22;11719;51.052;6.982;2022-11-15T15:07:17;19.00;98.50
16243;DHT22;11719;51.052;6.982;2022-11-15T15:09:44;19.00;98.50
16243;DHT22;11719;51.052;6.982;2022-11-15T15:14:42;19.00;98.50
16243;DHT22;11719;51.052;6.982;2022-11-15T15:17:08;19.00;98.50
16243;DHT22;11719;51.052;6.982;2022-11-15T15:19:35;19.00;98.50
16243;DHT22;11719;51.052;6.982;2022-11-15T15:22:01;19.00;98.20
16243;DHT22;11719;51.052;6.982;2022-11-15T15:24:26;19.00;98.30
16243;DHT22;11719;51.052;6.982;2022-11-15T15:26:52;19.00;98.40
16243;DHT22;11719;51.052;6.982;2022-11-15T15:29:18;19.00;98.30
16243;DHT22;11719;51.052;6.982;2022-11-15T15:31:44;19.00;98.10
16243;DHT22;11719;51.052;6.982;2022-11-15T15:34:09;19.00;98.40
16243;DHT22;11719;51.052;6.982;2022-11-15T15:36:35;19.00;98.40
16243;DHT22;11719;51.052;6.982;2022-11-15T15:39:01;19.00;98.50
16243;DHT22;11719;51.052;6.982;2022-11-15T15:41:27;19.00;98.40
16243;DHT22;11719;51.052;6.982;2022-11-15T15:43:52;19.00;98.50
16243;DHT22;11719;51.052;6.982;2022-11-15T15:46:19;19.00;98.30
16243;DHT22;11719;51.052;6.982;2022-11-15T15:48:46;19.00;98.30
16243;DHT22;11719;51.052;6.982;2022-11-15T15:51:12;19.00;98.40
16243;DHT22;11719;51.052;6.982;2022-11-15T15:53:38;19.00;98.50
16243;DHT22;11719;51.052;6.982;2022-11-15T15:56:04;19.00;98.40
16243;DHT22;11719;51.052;6.982;2022-11-15T15:58:33;19.00;98.60
16243;DHT22;11719;51.052;6.982;2022-11-15T16:00:59;19.00;98.40
16243;DHT22;11719;51.052;6.982;2022-11-15T16:03:25;19.00;98.30
16243;DHT22;11719;51.052;6.982;2022-11-15T16:05:53;19.00;98.50
16243;DHT22;11719;51.052;6.982;2022-11-15T16:08:21;19.00;98.50
16243;DHT22;11719;51.052;6.982;2022-11-15T16:10:48;19.00;98.50
16243;DHT22;11719;51.052;6.982;2022-11-15T16:13:14;19.00;98.40
16243;DHT22;11719;51.052;6.982;2022-11-15T16:15:41;19.00;98.90
16243;DHT22;11719;51.052;6.982;2022-11-15T16:18:14;19.10;98.60
16243;DHT22;11719;51.052;6.982;2022-11-15T16:20:46;19.10;98.60
16243;DHT22;11719;51.052;6.982;2022-11-15T16:23:16;19.10;98.60
16243;DHT22;11719;51.052;6.982;2022-11-15T16:25:51;19.10;98.60
16243;DHT22;11719;51.052;6.982;2022-11-15T16:31:07;19.00;98.70
16243;DHT22;11719;51.052;6.982;2022-11-15T16:33:34;19.00;98.70
16243;DHT22;11719;51.052;6.982;2022-11-15T16:36:01;19.00;98.60
16243;DHT22;11719;51.052;6.982;2022-11-15T16:38:27;19.00;98.30
16243;DHT22;11719;51.052;6.982;2022-11-15T16:40:53;19.00;98.60
16243;DHT22;11719;51.052;6.982;2022-11-15T16:43:19;19.00;98.60
16243;DHT22;11719;51.052;6.982;2022-11-15T16:45:45;19.00;98.50
16243;DHT22;11719;51.052;6.982;2022-11-15T16:48:26;19.00;98.60
16243;DHT22;11719;51.052;6.982;2022-11-15T16:50:55;19.00;98.50
16243;DHT22;11719;51.052;6.982;2022-11-15T16:53:21;19.00;98.50
16243;DHT22;11719;51.052;6.982;2022-11-15T16:55:48;19.00;98.20
16243;DHT22;11719;51.052;6.982;2022-11-15T16:58:14;19.00;98.70
16243;DHT22;11719;51.052;6.982;2022-11-15T17:00:39;19.00;98.70
16243;DHT22;11719;51.052;6.982;2022-11-15T17:03:05;19.00;98.70
16243;DHT22;11719;51.052;6.982;2022-11-15T17:05:31;19.00;98.70
16243;DHT22;11719;51.052;6.982;2022-11-15T17:07:57;19.00;98.80
16243;DHT22;11719;51.052;6.982;2022-11-15T17:10:25;19.00;98.80
16243;DHT22;11719;51.052;6.982;2022-11-15T17:12:53;19.00;98.70
16243;DHT22;11719;51.052;6.982;2022-11-15T17:15:19;18.90;98.40
16243;DHT22;11719;51.052;6.982;2022-11-15T17:17:53;18.90;98.80
16243;DHT22;11719;51.052;6.982;2022-11-15T17:20:23;18.80;98.80
16243;DHT22;11719;51.052;6.982;2022-11-15T17:22:49;18.90;98.90
16243;DHT22;11719;51.052;6.982;2022-11-15T17:25:15;18.90;98.70
16243;DHT22;11719;51.052;6.982;2022-11-15T17:27:41;18.90;98.80
16243;DHT22;11719;51.052;6.982;2022-11-15T17:30:09;19.00;98.80
16243;DHT22;11719;51.052;6.982;2022-11-15T17:32:37;19.00;98.70
16243;DHT22;11719;51.052;6.982;2022-11-15T17:35:04;19.00;98.60
16243;DHT22;11719;51.052;6.982;2022-11-15T17:37:34;19.00;98.60
16243;DHT22;11719;51.052;6.982;2022-11-15T17:39:59;19.00;98.70
16243;DHT22;11719;51.052;6.982;2022-11-15T17:42:25;19.00;98.40
16243;DHT22;11719;51.052;6.982;2022-11-15T17:44:51;19.00;98.20
16243;DHT22;11719;51.052;6.982;2022-11-15T17:47:17;18.90;98.80
16243;DHT22;11719;51.052;6.982;2022-11-15T17:49:43;19.00;98.40
16243;DHT22;11719;51.052;6.982;2022-11-15T17:52:08;19.00;98.70
16243;DHT22;11719;51.052;6.982;2022-11-15T17:54:34;19.00;98.70
16243;DHT22;11719;51.052;6.982;2022-11-15T17:57:00;19.00;98.70
16243;DHT22;11719;51.052;6.982;2022-11-15T17:59:26;19.00;98.80
16243;DHT22;11719;51.052;6.982;2022-11-15T18:01:51;19.00;98.70
16243;DHT22;11719;51.052;6.982;2022-11-15T18:04:18;19.00;98.70
16243;DHT22;11719;51.052;6.982;2022-11-15T18:06:45;19.00;99.40
16243;DHT22;11719;51.052;6.982;2022-11-15T18:09:11;19.00;99.20
16243;DHT22;11719;51.052;6.982;2022-11-15T18:11:39;19.00;98.70
16243;DHT22;11719;51.052;6.982;2022-11-15T18:14:11;19.00;98.80
16243;DHT22;11719;51.052;6.982;2022-11-15T18:16:39;19.10;98.70
16243;DHT22;11719;51.052;6.982;2022-11-15T18:19:05;19.10;98.80
16243;DHT22;11719;51.052;6.982;2022-11-15T18:21:43;19.10;98.70
16243;DHT22;11719;51.052;6.982;2022-11-15T18:24:33;19.00;98.90
16243;DHT22;11719;51.052;6.982;2022-11-15T18:27:02;19.00;98.90
16243;DHT22;11719;51.052;6.982;2022-11-15T18:29:29;19.00;98.90